Historyczne dane pomiarowe

Dodano dane terminowe – wersja testowa.

Dane z okresu 1951-2019

Wersja bazy: 1.34 [2019-03-16, lista zmian], aktualizacja planowana na 2019-04-15

Dane meteo z obszaru Polski uzyskane na podstawie danych udostępnionych przez Instytut Meteorologii i Gospodarki Wodnej – Państwowy Instytut Badawczy.

 

Wybierz Datę:    

       

TemperaturaWilgotnośćWiatrCiśnienieOpadyŚniegCzas trwania zjawisk
 Stacja t tx tn tng RH VA  wxwx mslp ppp RRR   cm mm wxwxwxwxwxwxwx
1961-08-14 14.7 20.2 10.5 9.4 80.0- 2.7 2.0---- 0.0------------
1961-08-13 14.8 18.0 12.8 12.1 84.0- 6.0 2.3---- 0.0------------
1961-08-12 17.1 22.5 15.2 13.7 91.5- 7.7 1.7---- 10.8------------
1961-08-11 18.0 22.5 16.6 14.4 98.8- 8.0 1.7---- 11.6------------
1961-08-10 22.2 27.4 17.2 16.0 82.5- 6.0 3.3---- 36.6------------
1961-08-09 21.3 28.1 15.3 12.5 80.5- 3.3 1.3---- 0.0------------
1961-08-08 18.2 23.1 10.8 8.1 78.8- 3.7 1.0---- 0.0------------
1961-08-07 18.8 23.2 17.1 15.5 94.3- 7.7 1.3---- 8.4------------
1961-08-06 23.6 31.1 15.2 12.5 72.0- 0.7 2.3---- 0.0------------
1961-08-05 18.8 24.8 14.6 14.0 79.3- 3.3 2.0---- 0.0------------
1961-08-04 15.5 19.5 7.5 6.1 77.3- 4.7 4.0---- 0.0------------
1961-08-03 14.0 19.6 11.6 11.2 92.5- 5.7 1.3---- 2.0------------
1961-08-02 17.4 26.0 9.5 7.8 86.3- 4.0 1.0---- 7.9------------
1961-08-01 12.6 18.5 11.2 10.5 95.0- 5.7 5.3---- 3.9------------
1961-07-31 12.9 13.9 11.9 11.5 99.0- 8.0 7.0---- 54.1------------
1961-07-30 13.8 16.1 9.5 9.3 92.3- 7.7 1.7---- 12.6------------
1961-07-29 13.8 19.4 11.6 11.7 89.8- 5.7 2.3---- 0.4------------
1961-07-28 15.6 18.8 13.8 11.8 93.5- 8.0 2.7---- 23.8------------
1961-07-27 19.9 25.4 13.0 10.5 69.3- 6.0 4.3---- 0.0------------
1961-07-26 17.2 22.9 10.5 8.2 75.0- 7.3 3.0---- 0.0------------
1961-07-25 14.5 17.8 9.9 8.0 85.8- 7.3 2.7---- 0.0------------
1961-07-24 13.3 18.5 9.5 8.6 86.3- 4.0 2.7---- 0.0------------
1961-07-23 14.4 17.7 12.4 11.8 88.8- 6.3 2.7---- 0.0------------
1961-07-22 14.9 19.6 13.1 12.8 91.8- 5.3 3.0---- 2.7------------
1961-07-21 14.4 17.0 10.9 9.5 93.0- 7.7 4.7---- 6.0------------
1961-07-20 15.7 22.4 7.9 7.1 83.8- 3.3 1.7---- 0.4------------
1961-07-19 14.7 20.4 9.4 7.9 88.3- 4.3 2.3---- 4.4------------
1961-07-18 14.0 19.1 10.7 9.2 92.3- 6.7 2.0---- 0.8------------
1961-07-17 15.2 22.0 10.0 7.7 82.0- 4.3 4.3---- 11.6------------
1961-07-16 14.6 19.2 12.4 10.2 94.0- 5.0 2.3---- 5.1------------
1961-07-15 17.3 24.0 10.0 8.0 83.3- 4.7 2.0---- 4.2------------
1961-07-14 13.9 18.2 12.4 12.6 78.3- 3.3 5.3---- 0.0------------
1961-07-13 20.8 28.1 14.2 12.0 82.0- 3.3 2.7---- 8.5------------
1961-07-12 19.7 27.8 12.3 10.2 79.3- 2.7 1.7---- 0.0------------
1961-07-11 15.9 21.0 7.6 5.4 76.3- 4.7 3.7---- 2.4------------
1961-07-10 13.2 17.9 9.1 8.1 88.3- 6.0 4.3---- 0.7------------
1961-07-09 15.0 19.9 9.3 7.3 83.3- 5.3 5.0---- 2.8------------
1961-07-08 15.4 22.1 6.4 4.7 72.8- 2.3 2.0---- 0.0------------
1961-07-07 12.5 17.3 7.5 6.6 92.3- 6.7 2.7---- 0.0------------
1961-07-06 11.7 15.1 7.4 5.6 85.0- 4.3 6.0---- 4.6------------
1961-07-05 13.1 18.6 10.5 12.4 74.5- 3.7 6.3---- 0.0------------
1961-07-04 18.4 25.4 15.7 13.1 70.0- 7.7 2.3---- 0.0------------
1961-07-03 23.8 31.9 12.0 10.4 59.5- 0.3 1.0---- 0.0------------
1961-07-02 22.2 30.9 10.9 9.0 65.3- 0.0 0.7---- 0.0------------
1961-07-01 20.1 27.0 11.1 9.0 69.8- 0.7 1.3---- 0.0------------
1961-06-30 18.8 26.3 9.8 7.9 75.5- 0.0 2.3---- 0.0------------
1961-06-29 15.6 20.6 9.1 7.0 78.3- 2.0 3.0---- 0.0------------
1961-06-28 14.0 21.0 11.7 14.9 83.3- 4.7 7.3---- 0.0------------
1961-06-27 23.3 31.4 16.1 14.6 72.5- 3.3 0.7---- 4.4------------
1961-06-26 22.5 27.8 14.2 11.6 66.5- 2.3 1.0---- 0.0------------
1961-06-25 21.7 28.0 11.6 10.9 70.0- 1.0 2.0---- 0.0------------
1961-06-24 18.0 22.8 11.8 8.7 76.0- 2.3 3.7---- 0.0------------
1961-06-23 17.2 23.0 14.1 14.4 82.5- 4.7 3.0---- 0.0------------
1961-06-22 16.4 22.0 6.3 5.4 76.5- 5.3 1.7---- 28.8------------
1961-06-21 15.0 24.0 6.0 5.6 77.0- 3.3 2.7---- 2.8------------
1961-06-20 15.1 21.5 6.8 5.2 69.3- 0.3 3.3---- 0.0------------
1961-06-19 15.3 23.0 12.3 12.8 86.0- 4.7 3.0---- 0.0------------
1961-06-18 20.1 27.2 11.6 9.1 69.8- 1.3 3.3---- 0.0------------
1961-06-17 17.5 23.9 6.6 4.7 74.0- 1.3 2.7---- 0.0------------
1961-06-16 13.8 17.6 9.9 7.4 84.5- 4.0 3.0---- 0.0------------
512.9 ms

 

Źródłem pochodzenia danych jest Instytut Meteorologii i Gospodarki Wodnej – Państwowy Instytut Badawczy. Dane Instytutu Meteorologii i Gospodarki Wodnej – Państwowego Instytutu Badawczego zostały przetworzone.

Dane źródłowe można odnaleźć na stronie https://dane.imgw.pl